Airfield :
LOGIN :

Register | Disclaimer

   EN    FR    IT 

 










Legend :    VFR   Marginal VFR   IFR   Intensive IFR   Very Intensive IFR
Visi :
Ceiling :
>= 8 km
>= 3000ft
5 to 8 km
1000 to 3000 ft
1500m to 5 km
500 to 1000 ft
800 to 1500m
200 to 500 ft
< 800m
< 200 ft
Symbols :   Thunderstorms  Fog  Heavy snow  Heavy precipitations  Wind > 20 kt
SIGMETs :     Misc.  Thunderstorms  Icing  Turbulence  Mountain Waves  Volcanic Ashes







- Airport Elevation : 177 ft
- IATA code : BRI


LIBD - Palese Macchie Bari

CURRENT METAR :
  • 190950Z 02007KT 340V050 9999 FEW025 18/15 Q1004

EXPIRED METARs :
  • 190920Z 02007KT 340V050 9999 FEW025 19/14 Q1004
  • 190850Z 23004KT 170V290 9999 SCT025 20/14 Q1004
  • 190820Z VRB03KT 9999 SCT025 20/14 Q1004
  • 190750Z VRB02KT 9999 FEW030 19/15 Q1004
  • 190720Z 18004KT 9999 -DZ FEW045 18/14 Q1004

TAF TAF LIBD
Valid from the 19 at 06:00 until the 20 at 06:00 UTC


190500Z 1906/2006 VRB05KT 9999 FEW040
BECMG 1908/1910 08010KT
TEMPO 1912/1918 4000 TSRA
BECMG 1917/1919 26010KT
No reported NOTAMs for that airfield.



MET'MAP, your aeronautical weather chart ! - Copyright ORBIFLY December 2007 - Disclaimer

ORBIFLY MET'MAP TEAM :

Programming & Development : Alexandra Zaïnal
Concept & Development : Baudouin d'Aumeries
Co-Development & Prog : Marc-Olivier Méhu
Technical & hardware support : Manuel Goepfert

Contact : metmap@orbifly.com




SOURCES & CREDITS :

   NOAA